createdAt,value
2023-05-14T04:26:46.778Z,23.91
2023-05-14T04:29:13.264Z,23.77
2023-05-14T04:31:39.726Z,23.99
2023-05-14T04:34:06.277Z,23.96
2023-05-14T04:36:32.777Z,23.95
2023-05-14T04:38:59.267Z,23.93
2023-05-14T04:41:25.777Z,24.01
2023-05-14T04:43:52.269Z,23.99
2023-05-14T04:46:18.835Z,24.00
2023-05-14T04:48:45.405Z,23.94
2023-05-14T04:51:11.937Z,23.95
2023-05-14T04:53:38.363Z,23.90
2023-05-14T04:56:04.844Z,24.02
2023-05-14T04:58:32.796Z,24.03
2023-05-14T05:01:00.868Z,23.96
2023-05-14T05:03:27.398Z,23.94
2023-05-14T05:05:53.971Z,24.02
2023-05-14T05:08:20.430Z,23.93
2023-05-14T05:10:46.902Z,23.96
2023-05-14T05:13:13.349Z,23.92
2023-05-14T05:15:39.794Z,23.90
2023-05-14T05:18:06.308Z,23.93
2023-05-14T05:20:32.849Z,23.95
2023-05-14T05:22:59.415Z,24.00
2023-05-14T05:25:25.974Z,23.96
2023-05-14T05:27:52.498Z,23.97
2023-05-14T05:30:19.023Z,23.90
2023-05-14T05:32:45.643Z,24.01
2023-05-14T05:35:12.184Z,23.96
2023-05-14T05:37:38.666Z,24.00
2023-05-14T05:40:05.078Z,24.05
2023-05-14T05:42:31.593Z,24.06
2023-05-14T05:44:58.052Z,24.03
2023-05-14T05:47:24.792Z,24.00
2023-05-14T05:49:51.316Z,24.01
2023-05-14T05:52:17.750Z,23.99
2023-05-14T05:54:44.250Z,24.07
2023-05-14T05:57:10.723Z,23.91
2023-05-14T05:59:37.223Z,23.97
2023-05-14T06:02:03.770Z,24.07
2023-05-14T06:04:30.297Z,23.99
2023-05-14T06:06:56.755Z,24.01
2023-05-14T06:09:23.166Z,24.06
2023-05-14T06:11:49.955Z,24.06
2023-05-14T06:14:16.437Z,24.07
2023-05-14T06:16:43.018Z,24.05
2023-05-14T06:19:09.543Z,24.07
2023-05-14T06:21:35.999Z,24.06
2023-05-14T06:24:02.406Z,24.02
2023-05-14T06:26:28.859Z,24.05
2023-05-14T06:28:55.320Z,24.13
2023-05-14T06:31:21.740Z,24.14
2023-05-14T06:33:48.190Z,24.02
2023-05-14T06:36:14.675Z,24.10
2023-05-14T06:38:41.117Z,24.19
2023-05-14T06:41:07.626Z,24.12
2023-05-14T06:43:34.144Z,24.12
2023-05-14T06:46:00.551Z,24.03
2023-05-14T06:48:27.144Z,24.03
2023-05-14T06:50:53.758Z,24.06
2023-05-14T06:53:20.198Z,24.08
2023-05-14T06:55:46.960Z,24.11
2023-05-14T06:58:13.441Z,24.10
2023-05-14T07:00:39.926Z,24.16
2023-05-14T07:03:06.468Z,24.14
2023-05-14T07:05:32.999Z,24.10
2023-05-14T07:07:59.478Z,24.17
2023-05-14T07:10:26.194Z,24.18
2023-05-14T07:12:52.887Z,24.16
2023-05-14T07:15:19.380Z,24.16
2023-05-14T07:17:45.939Z,24.20
2023-05-14T07:20:12.506Z,24.19
2023-05-14T07:22:39.034Z,24.14
2023-05-14T07:25:05.590Z,24.22
2023-05-14T07:27:32.044Z,24.31
2023-05-14T07:29:58.518Z,24.16
2023-05-14T07:32:25.106Z,24.27
2023-05-14T07:34:51.750Z,24.36
2023-05-14T07:37:18.381Z,24.31
2023-05-14T07:39:44.856Z,24.33
2023-05-14T07:42:13.740Z,24.24
2023-05-14T07:44:45.922Z,24.31
2023-05-14T07:47:12.458Z,24.33
2023-05-14T07:49:39.020Z,24.38
2023-05-14T07:52:05.495Z,24.31
2023-05-14T07:54:32.051Z,24.32
2023-05-14T07:56:58.524Z,24.28
2023-05-14T07:59:25.005Z,24.34
2023-05-14T08:01:51.506Z,24.29
2023-05-14T08:04:18.131Z,24.36
2023-05-14T08:06:44.769Z,24.35
2023-05-14T08:09:11.200Z,24.39
2023-05-14T08:11:37.693Z,24.43
2023-05-14T08:14:04.226Z,24.39
2023-05-14T08:16:30.797Z,24.43
2023-05-14T08:18:57.328Z,24.34
2023-05-14T08:21:23.874Z,24.27
2023-05-14T08:23:50.341Z,24.23
2023-05-14T08:26:16.780Z,24.25
2023-05-14T08:28:43.297Z,24.31
2023-05-14T08:31:09.907Z,24.41
2023-05-14T08:33:36.417Z,24.35
2023-05-14T08:36:02.920Z,24.38
2023-05-14T08:38:29.478Z,24.35
2023-05-14T08:40:55.961Z,24.38
2023-05-14T08:43:22.448Z,24.40
2023-05-14T08:45:49.013Z,24.46
2023-05-14T08:48:15.663Z,24.47
2023-05-14T08:50:42.200Z,24.54
2023-05-14T08:53:08.654Z,24.41
2023-05-14T08:55:35.389Z,24.50
2023-05-14T08:58:01.912Z,24.55
2023-05-14T09:00:28.493Z,24.64
2023-05-14T09:02:55.100Z,24.73
2023-05-14T09:05:21.605Z,24.62
2023-05-14T09:07:48.120Z,24.68
2023-05-14T09:10:14.597Z,24.72
2023-05-14T09:12:41.032Z,24.64
2023-05-14T09:15:07.556Z,24.70
2023-05-14T09:17:34.121Z,24.66
2023-05-14T09:20:00.671Z,24.64
2023-05-14T09:22:27.169Z,24.75
2023-05-14T09:24:53.667Z,24.75
2023-05-14T09:27:20.120Z,24.62
2023-05-14T09:29:46.614Z,24.61
2023-05-14T09:32:13.074Z,24.54
2023-05-14T09:34:39.655Z,24.62
2023-05-14T09:37:06.179Z,24.66
2023-05-14T09:39:32.670Z,24.71
2023-05-14T09:41:59.150Z,24.73
2023-05-14T09:44:25.677Z,24.71
2023-05-14T09:46:52.200Z,24.72
2023-05-14T09:49:18.773Z,24.61
2023-05-14T09:51:45.263Z,24.51
2023-05-14T09:54:11.748Z,24.52
2023-05-14T09:56:38.232Z,24.62
2023-05-14T09:59:04.755Z,24.69
2023-05-14T10:01:31.226Z,24.64
2023-05-14T10:03:57.776Z,24.77
2023-05-14T10:06:24.288Z,24.70
2023-05-14T10:08:50.747Z,24.66
2023-05-14T10:11:17.160Z,24.62
2023-05-14T10:13:43.682Z,24.65
2023-05-14T10:16:10.162Z,24.63
2023-05-14T10:18:36.693Z,24.59
2023-05-14T10:21:03.317Z,24.60
2023-05-14T10:23:29.839Z,24.64
2023-05-14T10:25:56.331Z,24.60
2023-05-14T10:28:22.875Z,24.60
2023-05-14T10:30:49.475Z,24.64
2023-05-14T10:33:15.991Z,24.60
2023-05-14T10:35:42.455Z,24.55
2023-05-14T10:38:08.921Z,24.65
2023-05-14T10:40:35.416Z,24.73
2023-05-14T10:43:01.870Z,24.89
2023-05-14T10:45:28.302Z,24.99
2023-05-14T10:47:54.894Z,25.01
2023-05-14T10:50:21.329Z,24.94
2023-05-14T10:52:47.839Z,24.87
2023-05-14T10:55:14.325Z,24.93
2023-05-14T10:57:40.882Z,25.08
2023-05-14T11:00:07.483Z,25.07
2023-05-14T11:02:34.180Z,25.21
2023-05-14T11:05:00.830Z,25.25
2023-05-14T11:07:27.367Z,25.24
2023-05-14T11:09:53.866Z,25.12
2023-05-14T11:12:20.470Z,25.05
2023-05-14T11:14:46.985Z,25.02
2023-05-14T11:17:13.484Z,25.06
2023-05-14T11:19:40.066Z,24.98
2023-05-14T11:22:06.539Z,24.85
2023-05-14T11:24:33.062Z,24.83
2023-05-14T11:26:59.643Z,24.79
2023-05-14T11:29:26.150Z,24.79
2023-05-14T11:31:52.667Z,24.75
2023-05-14T11:34:19.178Z,24.71
2023-05-14T11:36:45.709Z,24.79
2023-05-14T11:39:12.249Z,24.93
2023-05-14T11:41:38.812Z,24.73
2023-05-14T11:44:06.341Z,24.79
2023-05-14T11:46:33.798Z,25.09
2023-05-14T11:49:00.318Z,24.99
2023-05-14T11:51:26.818Z,24.96
2023-05-14T11:53:53.338Z,24.94
2023-05-14T11:56:19.885Z,25.00
2023-05-14T11:58:46.415Z,24.99
2023-05-14T12:01:12.955Z,24.95
2023-05-14T12:03:39.479Z,24.98
2023-05-14T12:06:06.010Z,24.88
2023-05-14T12:08:32.431Z,24.85
2023-05-14T12:10:58.984Z,24.74
2023-05-14T12:13:25.457Z,24.79
2023-05-14T12:15:51.901Z,24.85
2023-05-14T12:18:24.489Z,24.82
2023-05-14T12:20:51.550Z,24.77
2023-05-14T12:23:18.011Z,24.74
2023-05-14T12:25:44.465Z,24.84
2023-05-14T12:28:11.137Z,25.00
2023-05-14T12:30:37.636Z,24.93
2023-05-14T12:33:04.146Z,24.98
2023-05-14T12:35:30.663Z,25.01
2023-05-14T12:37:57.168Z,25.11
2023-05-14T12:40:23.879Z,25.17
2023-05-14T12:42:50.590Z,25.10
2023-05-14T12:45:17.030Z,25.19
2023-05-14T12:47:43.518Z,25.18
2023-05-14T12:50:10.116Z,25.19
2023-05-14T12:52:39.217Z,25.19
2023-05-14T12:55:06.497Z,25.28
2023-05-14T12:57:32.899Z,25.22
2023-05-14T12:59:59.294Z,25.25
2023-05-14T13:02:25.770Z,25.06
2023-05-14T13:04:55.428Z,25.16
2023-05-14T13:07:21.924Z,25.18
2023-05-14T13:09:48.425Z,25.67
2023-05-14T13:12:14.987Z,25.59
2023-05-14T13:14:41.426Z,25.24
2023-05-14T13:17:08.148Z,25.25
2023-05-14T13:19:34.723Z,25.32
2023-05-14T13:22:01.336Z,25.31
2023-05-14T13:24:27.756Z,25.30
2023-05-14T13:26:54.266Z,25.46
2023-05-14T13:29:20.783Z,25.39
2023-05-14T13:31:47.253Z,25.59
2023-05-14T13:34:13.691Z,25.66
2023-05-14T13:36:40.203Z,25.58
2023-05-14T13:39:06.761Z,25.43
2023-05-14T13:41:33.301Z,25.61
2023-05-14T13:43:59.797Z,25.53
2023-05-14T13:46:26.342Z,25.60
2023-05-14T13:48:52.869Z,25.76
2023-05-14T13:51:19.391Z,25.75
2023-05-14T13:53:45.881Z,25.95
2023-05-14T13:56:12.393Z,26.18
2023-05-14T13:58:38.901Z,26.23
2023-05-14T14:01:05.394Z,26.29
2023-05-14T14:03:31.952Z,26.09
2023-05-14T14:05:58.427Z,26.04
2023-05-14T14:08:25.006Z,25.76
2023-05-14T14:10:51.506Z,25.75
2023-05-14T14:13:17.944Z,25.81
2023-05-14T14:15:44.646Z,25.82
2023-05-14T14:18:11.150Z,25.84
2023-05-14T14:20:37.594Z,25.93
2023-05-14T14:23:04.126Z,26.08
2023-05-14T14:25:30.619Z,26.04
2023-05-14T14:27:57.089Z,26.01
2023-05-14T14:30:23.548Z,25.80
2023-05-14T14:32:50.072Z,25.73
2023-05-14T14:35:16.629Z,25.58
2023-05-14T14:37:43.057Z,25.52
2023-05-14T14:40:09.687Z,25.57
2023-05-14T14:42:38.923Z,25.74
2023-05-14T14:45:05.491Z,26.10
2023-05-14T14:47:32.134Z,26.12
2023-05-14T14:49:58.807Z,26.09
2023-05-14T14:52:25.349Z,25.71
2023-05-14T14:54:51.910Z,25.61
2023-05-14T14:57:18.497Z,25.65
2023-05-14T14:59:45.019Z,25.83
2023-05-14T15:02:11.548Z,25.75
2023-05-14T15:04:38.075Z,25.85
2023-05-14T15:07:04.586Z,26.12
2023-05-14T15:09:31.055Z,27.66
2023-05-14T15:11:57.641Z,30.33
2023-05-14T15:14:24.074Z,33.05
2023-05-14T15:16:51.133Z,34.60
2023-05-14T15:19:17.802Z,36.47
2023-05-14T15:21:44.345Z,36.75
2023-05-14T15:24:10.864Z,31.76
2023-05-14T15:26:37.303Z,33.84
2023-05-14T15:29:03.872Z,35.98
2023-05-14T15:31:30.416Z,32.71
2023-05-14T15:33:56.932Z,30.07
2023-05-14T15:36:23.582Z,29.02
2023-05-14T15:38:50.062Z,28.61
2023-05-14T15:41:16.637Z,28.25
2023-05-14T15:43:43.188Z,29.17
2023-05-14T15:46:09.652Z,34.00
2023-05-14T15:48:37.290Z,34.77
2023-05-14T15:51:03.792Z,32.99
2023-05-14T15:53:30.360Z,34.92
2023-05-14T15:55:56.839Z,31.98
2023-05-14T15:58:23.345Z,29.87
2023-05-14T16:00:49.789Z,29.19
2023-05-14T16:03:16.357Z,28.80
2023-05-14T16:05:42.857Z,28.40
2023-05-14T16:08:09.295Z,28.25
2023-05-14T16:10:35.834Z,28.05
2023-05-14T16:13:02.402Z,31.70
2023-05-14T16:15:28.843Z,34.30
2023-05-14T16:17:55.378Z,35.32
2023-05-14T16:20:22.076Z,35.85
2023-05-14T16:22:48.644Z,32.88
2023-05-14T16:25:15.076Z,32.01
2023-05-14T16:27:41.693Z,32.90
2023-05-14T16:30:08.208Z,35.50
2023-05-14T16:32:34.749Z,36.14
2023-05-14T16:37:46.141Z,33.20
2023-05-14T16:40:12.661Z,32.33
2023-05-14T16:42:39.111Z,31.60
2023-05-14T16:45:05.847Z,30.16
2023-05-14T16:47:32.347Z,29.14
2023-05-14T16:49:58.887Z,28.37
2023-05-14T16:52:25.371Z,28.28
2023-05-14T16:54:51.899Z,28.22
2023-05-14T16:57:18.387Z,27.99
2023-05-14T16:59:44.825Z,27.95
2023-05-14T17:02:11.285Z,27.80
2023-05-14T17:04:37.777Z,27.73
2023-05-14T17:07:04.299Z,27.48
2023-05-14T17:09:31.245Z,27.22
2023-05-14T17:11:57.779Z,27.00
2023-05-14T17:14:24.245Z,26.94
2023-05-14T17:16:50.683Z,26.93
2023-05-14T17:19:17.430Z,26.89
2023-05-14T17:21:43.977Z,26.80
2023-05-14T17:24:10.469Z,26.82
2023-05-14T17:26:36.968Z,26.85
2023-05-14T17:29:03.397Z,26.85
2023-05-14T17:31:29.916Z,26.67
2023-05-14T17:33:56.470Z,26.54
2023-05-14T17:36:22.975Z,26.42
2023-05-14T17:38:49.509Z,26.32
2023-05-14T17:41:15.990Z,26.17
2023-05-14T17:43:42.446Z,26.08
2023-05-14T17:46:08.956Z,26.05
2023-05-14T17:48:35.459Z,25.94
2023-05-14T17:51:01.960Z,25.97
2023-05-14T17:53:28.500Z,25.80
2023-05-14T17:55:54.929Z,25.79
2023-05-14T17:58:21.447Z,25.73
2023-05-14T18:00:47.945Z,25.69
2023-05-14T18:03:14.594Z,25.62
2023-05-14T18:05:41.058Z,25.53
2023-05-14T18:08:07.525Z,25.50
2023-05-14T18:10:34.027Z,25.40
2023-05-14T18:13:00.719Z,25.44
2023-05-14T18:15:27.228Z,25.39
2023-05-14T18:17:53.778Z,25.38
2023-05-14T18:20:20.431Z,25.38
2023-05-14T18:22:46.956Z,25.36
2023-05-14T18:25:13.411Z,25.35
2023-05-14T18:27:39.857Z,25.31
2023-05-14T18:30:06.329Z,25.38
2023-05-14T18:32:32.828Z,25.28
2023-05-14T18:34:59.346Z,25.27
2023-05-14T18:37:25.843Z,25.13
2023-05-14T18:39:52.305Z,25.15
2023-05-14T18:42:18.933Z,25.26
2023-05-14T18:44:45.466Z,25.06
2023-05-14T18:47:11.965Z,25.16
2023-05-14T18:49:38.460Z,25.18
2023-05-14T18:52:04.961Z,25.16
2023-05-14T18:54:31.383Z,24.94
2023-05-14T18:56:57.877Z,24.83
2023-05-14T18:59:24.450Z,24.89
2023-05-14T19:01:50.943Z,24.83
2023-05-14T19:32:44.704Z,24.74
2023-05-14T19:35:11.176Z,24.79
2023-05-14T19:37:37.609Z,24.73
2023-05-14T19:40:04.137Z,24.70
2023-05-14T19:42:30.683Z,24.69
2023-05-14T19:44:57.172Z,24.62
2023-05-14T19:47:23.635Z,24.64
2023-05-14T19:49:50.174Z,24.61
2023-05-14T19:52:19.636Z,24.70
2023-05-14T19:54:46.145Z,24.58
2023-05-14T19:57:12.682Z,24.61
2023-05-14T19:59:39.129Z,24.61
2023-05-14T20:02:05.754Z,24.59
2023-05-14T20:04:32.286Z,24.57
2023-05-14T20:06:58.819Z,24.54
2023-05-14T20:09:25.258Z,24.31
2023-05-14T20:11:52.624Z,24.28
2023-05-14T20:14:20.592Z,24.48
2023-05-14T20:16:47.397Z,24.50
2023-05-14T20:19:14.027Z,24.54
2023-05-14T20:21:40.513Z,24.53
2023-05-14T20:24:07.051Z,24.48
2023-05-14T20:26:33.586Z,24.45
2023-05-14T20:29:00.178Z,24.51
2023-05-14T20:31:26.733Z,24.58
2023-05-14T20:33:53.206Z,24.54
2023-05-14T20:36:19.705Z,24.48
2023-05-14T20:38:46.142Z,24.41
2023-05-14T20:41:12.647Z,24.49
2023-05-14T20:43:39.172Z,24.52
2023-05-14T20:46:05.682Z,24.49
2023-05-14T20:48:32.241Z,24.50
